sensor_id;sensor_type;location;lat;lon;timestamp;pressure;altitude;pressure_sealevel;temperature;humidity
61880;BME280;47817;52.798;27.544;2023-04-10T00:01:20;1029.6;;;12.4;57.3
61880;BME280;47817;52.798;27.544;2023-04-10T00:06:46;1029.6;;;12.3;57.4
61880;BME280;47817;52.798;27.544;2023-04-10T00:11:32;1029.6;;;12.3;57.9
61880;BME280;47817;52.798;27.544;2023-04-10T00:15:58;1029.6;;;12.2;58.5
61880;BME280;47817;52.798;27.544;2023-04-10T00:21:26;1029.6;;;12.2;58.8
61880;BME280;47817;52.798;27.544;2023-04-10T00:25:58;1029.6;;;12.1;59.2
61880;BME280;47817;52.798;27.544;2023-04-10T00:31:48;1029.6;;;12;59.6
61880;BME280;47817;52.798;27.544;2023-04-10T00:36:32;1029.6;;;12;59.7
61880;BME280;47817;52.798;27.544;2023-04-10T00:41:20;1029.6;;;11.9;59.6
61880;BME280;47817;52.798;27.544;2023-04-10T00:45:58;1029.6;;;11.9;59.9
61880;BME280;47817;52.798;27.544;2023-04-10T00:51:20;1029.6;;;11.7;60.1
61880;BME280;47817;52.798;27.544;2023-04-10T00:56:32;1029.6;;;11.7;60.6
61880;BME280;47817;52.798;27.544;2023-04-10T01:01:30;1029.6;;;11.7;60.7
61880;BME280;47817;52.798;27.544;2023-04-10T01:06:22;1029.6;;;11.7;60.6
61880;BME280;47817;52.798;27.544;2023-04-10T01:11:23;1029.6;;;11.7;60.3
61880;BME280;47817;52.798;27.544;2023-04-10T01:16:22;1029.6;;;11.7;60.2
61880;BME280;47817;52.798;27.544;2023-04-10T01:21:48;1029.6;;;11.7;60.2
61880;BME280;47817;52.798;27.544;2023-04-10T01:26:31;1029.6;;;11.6;60.3
61880;BME280;47817;52.798;27.544;2023-04-10T01:31:12;1029.6;;;11.6;60.3
61880;BME280;47817;52.798;27.544;2023-04-10T01:36:08;1029.6;;;11.5;60.7
61880;BME280;47817;52.798;27.544;2023-04-10T01:40:58;1029.5;;;11.4;61.1
61880;BME280;47817;52.798;27.544;2023-04-10T01:46:47;1029.6;;;11.4;61.3
61880;BME280;47817;52.798;27.544;2023-04-10T01:51:32;1029.5;;;11.5;60.8
61880;BME280;47817;52.798;27.544;2023-04-10T01:56:20;1029.5;;;11.5;61.1
61880;BME280;47817;52.798;27.544;2023-04-10T02:01:20;1029.5;;;11.5;61.2
61880;BME280;47817;52.798;27.544;2023-04-10T02:06:00;1029.4;;;11.5;61
61880;BME280;47817;52.798;27.544;2023-04-10T02:11:57;1029.5;;;11.5;60.9
61880;BME280;47817;52.798;27.544;2023-04-10T02:16:32;1029.5;;;11.5;61.2
61880;BME280;47817;52.798;27.544;2023-04-10T02:21:20;1029.5;;;11.5;61.3
61880;BME280;47817;52.798;27.544;2023-04-10T02:26:04;1029.5;;;11.5;61.7
61880;BME280;47817;52.798;27.544;2023-04-10T02:31:10;1029.6;;;11.4;62
61880;BME280;47817;52.798;27.544;2023-04-10T02:36:48;1029.6;;;11.3;62.3
61880;BME280;47817;52.798;27.544;2023-04-10T02:41:34;1029.6;;;11.3;62.3
61880;BME280;47817;52.798;27.544;2023-04-10T02:46:20;1029.7;;;11.2;62.3
61880;BME280;47817;52.798;27.544;2023-04-10T02:51:20;1029.6;;;11.1;62.5
61880;BME280;47817;52.798;27.544;2023-04-10T02:56:20;1029.6;;;11;62
61880;BME280;47817;52.798;27.544;2023-04-10T03:01:46;1029.7;;;10.9;62.7
61880;BME280;47817;52.798;27.544;2023-04-10T03:06:32;1029.7;;;10.8;63.2
61880;BME280;47817;52.798;27.544;2023-04-10T03:10:58;1029.7;;;10.7;63.6
61880;BME280;47817;52.798;27.544;2023-04-10T03:15:58;1029.7;;;10.7;63.9
61880;BME280;47817;52.798;27.544;2023-04-10T03:21:08;1029.8;;;10.6;64.1
61880;BME280;47817;52.798;27.544;2023-04-10T03:26:46;1029.8;;;10.6;63.9
61880;BME280;47817;52.798;27.544;2023-04-10T03:31:32;1029.8;;;10.7;63.8
61880;BME280;47817;52.798;27.544;2023-04-10T03:36:10;1029.8;;;10.7;63.7
61880;BME280;47817;52.798;27.544;2023-04-10T03:41:08;1029.8;;;10.7;63.6
61880;BME280;47817;52.798;27.544;2023-04-10T03:46:20;1029.9;;;10.8;63.5
61880;BME280;47817;52.798;27.544;2023-04-10T03:51:36;1029.9;;;10.9;63.2
61880;BME280;47817;52.798;27.544;2023-04-10T03:56:32;1029.8;;;11;62.9
61880;BME280;47817;52.798;27.544;2023-04-10T04:01:46;1029.9;;;11.2;62.8
61880;BME280;47817;52.798;27.544;2023-04-10T04:05:58;1029.9;;;11.3;62.6
61880;BME280;47817;52.798;27.544;2023-04-10T04:11:10;1029.9;;;11.4;62.5
61880;BME280;47817;52.798;27.544;2023-04-10T04:16:46;1029.9;;;11.5;62.4
61880;BME280;47817;52.798;27.544;2023-04-10T04:21:26;1029.9;;;11.5;62.2
61880;BME280;47817;52.798;27.544;2023-04-10T04:26:16;1030;;;11.7;62
61880;BME280;47817;52.798;27.544;2023-04-10T04:30:58;1030;;;11.8;61.7
61880;BME280;47817;52.798;27.544;2023-04-10T04:36:20;1030;;;11.9;61.4
61880;BME280;47817;52.798;27.544;2023-04-10T04:41:38;1030.1;;;12;61.1
61880;BME280;47817;52.798;27.544;2023-04-10T04:46:30;1030.1;;;12.1;60.8
61880;BME280;47817;52.798;27.544;2023-04-10T04:51:46;1030.2;;;12.2;60.5
61880;BME280;47817;52.798;27.544;2023-04-10T04:56:20;1030.2;;;12.3;60.4
61880;BME280;47817;52.798;27.544;2023-04-10T05:01:20;1030.2;;;12.2;60.6
61880;BME280;47817;52.798;27.544;2023-04-10T05:06:46;1030.3;;;12.3;60.6
61880;BME280;47817;52.798;27.544;2023-04-10T05:11:32;1030.3;;;12.5;60.4
61880;BME280;47817;52.798;27.544;2023-04-10T05:16:46;1030.3;;;12.6;60
61880;BME280;47817;52.798;27.544;2023-04-10T05:21:08;1030.3;;;12.7;59.8
61880;BME280;47817;52.798;27.544;2023-04-10T05:25:58;1030.3;;;12.8;59.5
61880;BME280;47817;52.798;27.544;2023-04-10T05:31:46;1030.4;;;12.9;59.3
61880;BME280;47817;52.798;27.544;2023-04-10T05:36:32;1030.4;;;13;59.1
61880;BME280;47817;52.798;27.544;2023-04-10T05:41:46;1030.4;;;13.1;59
61880;BME280;47817;52.798;27.544;2023-04-10T05:46:30;1030.4;;;13.2;58.9
61880;BME280;47817;52.798;27.544;2023-04-10T05:50:58;1030.4;;;13.2;58.9
61880;BME280;47817;52.798;27.544;2023-04-10T05:56:46;1030.5;;;13.3;58.9
61880;BME280;47817;52.798;27.544;2023-04-10T06:01:34;1030.5;;;13.5;58.7
61880;BME280;47817;52.798;27.544;2023-04-10T06:06:46;1030.6;;;13.5;58.7
61880;BME280;47817;52.798;27.544;2023-04-10T06:10:58;1030.6;;;13.5;59.3
61880;BME280;47817;52.798;27.544;2023-04-10T06:15:58;1030.6;;;13.5;59.8
61880;BME280;47817;52.798;27.544;2023-04-10T06:21:46;1030.6;;;13.7;60
61880;BME280;47817;52.798;27.544;2023-04-10T06:26:32;1030.6;;;13.9;59.6
61880;BME280;47817;52.798;27.544;2023-04-10T06:31:46;1030.6;;;14.2;59.4
61880;BME280;47817;52.798;27.544;2023-04-10T06:36:20;1030.7;;;14.4;58.8
61880;BME280;47817;52.798;27.544;2023-04-10T06:41:20;1030.7;;;14.7;58.3
61880;BME280;47817;52.798;27.544;2023-04-10T06:46:46;1030.7;;;14.9;58.3
61880;BME280;47817;52.798;27.544;2023-04-10T06:51:30;1030.7;;;14.9;58.3
61880;BME280;47817;52.798;27.544;2023-04-10T06:56:46;1030.7;;;15;58.3
61880;BME280;47817;52.798;27.544;2023-04-10T07:00:58;1030.8;;;15.1;58.3
61880;BME280;47817;52.798;27.544;2023-04-10T07:06:18;1030.8;;;15.1;58.3
61880;BME280;47817;52.798;27.544;2023-04-10T07:11:46;1030.9;;;15.2;58.7
61880;BME280;47817;52.798;27.544;2023-04-10T07:16:32;1030.9;;;15.3;58.6
61880;BME280;47817;52.798;27.544;2023-04-10T07:21:44;1030.9;;;15.5;58.5
61880;BME280;47817;52.798;27.544;2023-04-10T07:26:18;1030.9;;;15.7;58.3
61880;BME280;47817;52.798;27.544;2023-04-10T07:30:58;1030.8;;;15.8;58.2
61880;BME280;47817;52.798;27.544;2023-04-10T07:36:42;1030.8;;;15.9;58
61880;BME280;47817;52.798;27.544;2023-04-10T07:41:32;1030.8;;;16.1;57.8
61880;BME280;47817;52.798;27.544;2023-04-10T07:46:44;1030.8;;;16.3;57.4
61880;BME280;47817;52.798;27.544;2023-04-10T07:50:58;1030.8;;;16.5;56.8
61880;BME280;47817;52.798;27.544;2023-04-10T07:56:36;1030.7;;;16.7;56.5
61880;BME280;47817;52.798;27.544;2023-04-10T08:01:08;1030.7;;;17.1;55.8
61880;BME280;47817;52.798;27.544;2023-04-10T08:06:24;1030.7;;;17.1;55.5
61880;BME280;47817;52.798;27.544;2023-04-10T08:11:44;1030.7;;;17.3;55.1
61880;BME280;47817;52.798;27.544;2023-04-10T08:15:58;1030.7;;;17.4;54.8
61880;BME280;47817;52.798;27.544;2023-04-10T08:21:20;1030.7;;;17.5;54.4
61880;BME280;47817;52.798;27.544;2023-04-10T08:26:44;1030.7;;;17.6;53.9
61880;BME280;47817;52.798;27.544;2023-04-10T08:31:30;1030.6;;;17.7;53.6
61880;BME280;47817;52.798;27.544;2023-04-10T08:36:44;1030.5;;;18;53.2
61880;BME280;47817;52.798;27.544;2023-04-10T08:41:20;1030.5;;;18.3;52.7
61880;BME280;47817;52.798;27.544;2023-04-10T08:46:21;1030.5;;;18.5;52.4
61880;BME280;47817;52.798;27.544;2023-04-10T08:51:45;1030.5;;;18.9;52
61880;BME280;47817;52.798;27.544;2023-04-10T08:56:00;1030.5;;;19.3;51
61880;BME280;47817;52.798;27.544;2023-04-10T09:01:44;1030.5;;;19.4;49.8
61880;BME280;47817;52.798;27.544;2023-04-10T09:05:59;1030.5;;;19.5;49.1
61880;BME280;47817;52.798;27.544;2023-04-10T09:11:20;1030.5;;;19.6;47.8
61880;BME280;47817;52.798;27.544;2023-04-10T09:16:44;1030.5;;;19.8;47.4
61880;BME280;47817;52.798;27.544;2023-04-10T09:21:15;1030.4;;;20.1;47
61880;BME280;47817;52.798;27.544;2023-04-10T09:26:42;1030.4;;;20.2;46.8
61880;BME280;47817;52.798;27.544;2023-04-10T09:30:58;1030.4;;;20.5;46.5
61880;BME280;47817;52.798;27.544;2023-04-10T09:36:28;1030.4;;;20.7;46.1
61880;BME280;47817;52.798;27.544;2023-04-10T09:41:48;1030.3;;;20.7;46.2
61880;BME280;47817;52.798;27.544;2023-04-10T09:46:30;1030.3;;;20.4;46
61880;BME280;47817;52.798;27.544;2023-04-10T09:51:46;1030.3;;;20.4;45.7
61880;BME280;47817;52.798;27.544;2023-04-10T09:55:58;1030.2;;;20.8;44.9
61880;BME280;47817;52.798;27.544;2023-04-10T10:01:38;1030.3;;;20.4;45
61880;BME280;47817;52.798;27.544;2023-04-10T10:06:42;1030.2;;;20;45.4
61880;BME280;47817;52.798;27.544;2023-04-10T10:11:46;1030.3;;;20.2;45.1
61880;BME280;47817;52.798;27.544;2023-04-10T10:16:45;1030.2;;;20.6;43.9
61880;BME280;47817;52.798;27.544;2023-04-10T10:21:20;1030.2;;;20.5;44.2
61880;BME280;47817;52.798;27.544;2023-04-10T10:25:58;1030.2;;;20.3;44.3
61880;BME280;47817;52.798;27.544;2023-04-10T10:31:46;1030.1;;;20.8;43.6
61880;BME280;47817;52.798;27.544;2023-04-10T10:36:26;1030.1;;;20.8;42.7
61880;BME280;47817;52.798;27.544;2023-04-10T10:41:43;1030.1;;;20.5;42.8
61880;BME280;47817;52.798;27.544;2023-04-10T10:45:59;1030;;;20.7;41.9
61880;BME280;47817;52.798;27.544;2023-04-10T10:51:20;1030;;;20.8;41.3
61880;BME280;47817;52.798;27.544;2023-04-10T10:56:44;1029.9;;;21.1;40.5
61880;BME280;47817;52.798;27.544;2023-04-10T11:01:32;1029.9;;;21.3;39.6
61880;BME280;47817;52.798;27.544;2023-04-10T11:06:48;1029.8;;;21.5;38.9
61880;BME280;47817;52.798;27.544;2023-04-10T11:11:09;1029.8;;;21.4;38.5
61880;BME280;47817;52.798;27.544;2023-04-10T11:15:58;1029.8;;;21.4;38.5
61880;BME280;47817;52.798;27.544;2023-04-10T11:22:17;1029.7;;;21.6;38.1
61880;BME280;47817;52.798;27.544;2023-04-10T11:26:36;1029.7;;;21.3;38.2
61880;BME280;47817;52.798;27.544;2023-04-10T11:31:44;1029.7;;;21.1;38.2
61880;BME280;47817;52.798;27.544;2023-04-10T11:35:58;1029.6;;;21.5;37.6
61880;BME280;47817;52.798;27.544;2023-04-10T11:40:59;1029.5;;;22.3;36.6
61880;BME280;47817;52.798;27.544;2023-04-10T11:46:43;1029.5;;;22.7;36.1
61880;BME280;47817;52.798;27.544;2023-04-10T11:51:28;1029.4;;;22.6;35.2
61880;BME280;47817;52.798;27.544;2023-04-10T11:56:45;1029.3;;;22.8;34.8
61880;BME280;47817;52.798;27.544;2023-04-10T12:00:59;1029.3;;;22.8;34.7
61880;BME280;47817;52.798;27.544;2023-04-10T12:05:58;1029.3;;;22.8;34.3
61880;BME280;47817;52.798;27.544;2023-04-10T12:11:48;1029.2;;;23.2;34
61880;BME280;47817;52.798;27.544;2023-04-10T12:16:30;1029.2;;;23.5;33.4
61880;BME280;47817;52.798;27.544;2023-04-10T12:21:44;1029.1;;;23.6;32.5
61880;BME280;47817;52.798;27.544;2023-04-10T12:26:14;1029;;;23.8;32.4
61880;BME280;47817;52.798;27.544;2023-04-10T12:31:42;1029;;;24.1;32.2
61880;BME280;47817;52.798;27.544;2023-04-10T12:36:18;1028.9;;;24.1;32
61880;BME280;47817;52.798;27.544;2023-04-10T12:41:27;1028.8;;;24.3;31.6
61880;BME280;47817;52.798;27.544;2023-04-10T12:46:27;1028.8;;;24.4;31.3
61880;BME280;47817;52.798;27.544;2023-04-10T12:50:58;1028.7;;;24.8;31.2
61880;BME280;47817;52.798;27.544;2023-04-10T12:56:46;1028.6;;;25.3;30.5
61880;BME280;47817;52.798;27.544;2023-04-10T13:01:14;1028.6;;;26.1;29.7
61880;BME280;47817;52.798;27.544;2023-04-10T13:06:24;1028.5;;;26.7;29.1
61880;BME280;47817;52.798;27.544;2023-04-10T13:11:28;1028.4;;;27.1;29.1
61880;BME280;47817;52.798;27.544;2023-04-10T13:16:04;1028.4;;;26.8;29.3
61880;BME280;47817;52.798;27.544;2023-04-10T13:21:46;1028.4;;;27.1;28.8
61880;BME280;47817;52.798;27.544;2023-04-10T13:25:58;1028.4;;;25.9;29.6
61880;BME280;47817;52.798;27.544;2023-04-10T13:30:58;1028.4;;;24.8;30.7
61880;BME280;47817;52.798;27.544;2023-04-10T13:36:16;1028.4;;;27.5;28.5
61880;BME280;47817;52.798;27.544;2023-04-10T13:41:14;1028.4;;;29;26.9
61880;BME280;47817;52.798;27.544;2023-04-10T13:46:44;1028.3;;;31.2;25.8
61880;BME280;47817;52.798;27.544;2023-04-10T13:50:58;1028.3;;;33.4;24.3
61880;BME280;47817;52.798;27.544;2023-04-10T13:56:22;1028.5;;;34.6;23.4
61880;BME280;47817;52.798;27.544;2023-04-10T14:01:26;1028.6;;;34.2;23
61880;BME280;47817;52.798;27.544;2023-04-10T14:05:58;1028.7;;;32.5;24.1
61880;BME280;47817;52.798;27.544;2023-04-10T14:11:46;1028.7;;;33.9;22.2
61880;BME280;47817;52.798;27.544;2023-04-10T14:15:58;1028.7;;;33.8;22.3
61880;BME280;47817;52.798;27.544;2023-04-10T14:21:22;1028.7;;;33.4;22.6
61880;BME280;47817;52.798;27.544;2023-04-10T14:26:30;1028.9;;;29.8;24
61880;BME280;47817;52.798;27.544;2023-04-10T14:31:05;1028.8;;;26.2;26.9
61880;BME280;47817;52.798;27.544;2023-04-10T14:36:44;1028.7;;;24.1;28.8
61880;BME280;47817;52.798;27.544;2023-04-10T14:41:04;1028.6;;;22.9;30.2
61880;BME280;47817;52.798;27.544;2023-04-10T14:46:12;1028.6;;;22.2;30.8
61880;BME280;47817;52.798;27.544;2023-04-10T14:51:28;1028.6;;;21.8;30.9
61880;BME280;47817;52.798;27.544;2023-04-10T14:55:58;1028.6;;;21.6;31.1
61880;BME280;47817;52.798;27.544;2023-04-10T15:01:46;1028.5;;;21.5;31.4
61880;BME280;47817;52.798;27.544;2023-04-10T15:06:06;1028.5;;;21.5;31.5
61880;BME280;47817;52.798;27.544;2023-04-10T15:11:12;1028.5;;;21.7;31.5
61880;BME280;47817;52.798;27.544;2023-04-10T15:16:26;1028.5;;;21.7;31.5
61880;BME280;47817;52.798;27.544;2023-04-10T15:21:04;1028.5;;;21.9;31.5
61880;BME280;47817;52.798;27.544;2023-04-10T15:26:43;1028.4;;;24.2;30
61880;BME280;47817;52.798;27.544;2023-04-10T15:31:14;1028.2;;;26.3;27.9
61880;BME280;47817;52.798;27.544;2023-04-10T15:36:22;1028.3;;;24.6;29.1
61880;BME280;47817;52.798;27.544;2023-04-10T15:41:26;1028.2;;;24.7;29
61880;BME280;47817;52.798;27.544;2023-04-10T15:46:08;1028.1;;;26.2;27.7
61880;BME280;47817;52.798;27.544;2023-04-10T15:51:44;1028;;;27.4;26.8
61880;BME280;47817;52.798;27.544;2023-04-10T15:55:58;1028;;;27.9;26.9
61880;BME280;47817;52.798;27.544;2023-04-10T16:01:22;1027.9;;;29.4;25.6
61880;BME280;47817;52.798;27.544;2023-04-10T16:06:28;1027.9;;;29.8;25.5
61880;BME280;47817;52.798;27.544;2023-04-10T16:10:58;1027.9;;;29.9;25
61880;BME280;47817;52.798;27.544;2023-04-10T16:16:46;1027.9;;;29.4;25
61880;BME280;47817;52.798;27.544;2023-04-10T16:21:16;1027.9;;;28.8;25.4
61880;BME280;47817;52.798;27.544;2023-04-10T16:26:22;1028;;;28.1;26.3
61880;BME280;47817;52.798;27.544;2023-04-10T16:31:30;1028;;;27.1;27.2
61880;BME280;47817;52.798;27.544;2023-04-10T16:36:22;1028.1;;;25.7;28.2
61880;BME280;47817;52.798;27.544;2023-04-10T16:41:36;1028.1;;;23.8;29.8
61880;BME280;47817;52.798;27.544;2023-04-10T16:45:58;1028.1;;;22.3;31.4
61880;BME280;47817;52.798;27.544;2023-04-10T16:51:22;1028.1;;;21;32.9
61880;BME280;47817;52.798;27.544;2023-04-10T16:56:44;1028.2;;;19.9;35
61880;BME280;47817;52.798;27.544;2023-04-10T17:01:22;1028.3;;;19;36.6
61880;BME280;47817;52.798;27.544;2023-04-10T17:06:36;1028.3;;;18.2;38.2
61880;BME280;47817;52.798;27.544;2023-04-10T17:11:08;1028.3;;;17.6;39.9
61880;BME280;47817;52.798;27.544;2023-04-10T17:16:12;1028.4;;;17.1;41.2
61880;BME280;47817;52.798;27.544;2023-04-10T17:21:44;1028.4;;;16.7;41.7
61880;BME280;47817;52.798;27.544;2023-04-10T17:26:13;1028.4;;;16.4;42.3
61880;BME280;47817;52.798;27.544;2023-04-10T17:31:36;1028.5;;;16.1;43.5
61880;BME280;47817;52.798;27.544;2023-04-10T17:35:58;1028.5;;;15.9;44.6
61880;BME280;47817;52.798;27.544;2023-04-10T17:41:22;1028.6;;;15.7;45.4
61880;BME280;47817;52.798;27.544;2023-04-10T17:46:42;1028.7;;;15.6;45.5
61880;BME280;47817;52.798;27.544;2023-04-10T17:51:08;1028.8;;;15.4;46
61880;BME280;47817;52.798;27.544;2023-04-10T17:56:42;1028.8;;;15.2;46
61880;BME280;47817;52.798;27.544;2023-04-10T18:00:58;1028.9;;;15.1;46.3
61880;BME280;47817;52.798;27.544;2023-04-10T18:06:12;1028.8;;;15;46.5
61880;BME280;47817;52.798;27.544;2023-04-10T18:11:44;1028.8;;;14.9;46.7
61880;BME280;47817;52.798;27.544;2023-04-10T18:16:22;1028.9;;;14.8;47.3
61880;BME280;47817;52.798;27.544;2023-04-10T18:21:22;1028.9;;;14.7;48
61880;BME280;47817;52.798;27.544;2023-04-10T18:26:09;1028.9;;;14.6;48.6
61880;BME280;47817;52.798;27.544;2023-04-10T18:31:22;1028.9;;;14.6;48.3
61880;BME280;47817;52.798;27.544;2023-04-10T18:36:44;1028.8;;;14.6;48.3
61880;BME280;47817;52.798;27.544;2023-04-10T18:41:36;1028.8;;;14.5;48.6
61880;BME280;47817;52.798;27.544;2023-04-10T18:46:36;1028.8;;;14.5;49.5
61880;BME280;47817;52.798;27.544;2023-04-10T18:51:46;1028.7;;;14.4;50.4
61880;BME280;47817;52.798;27.544;2023-04-10T18:56:22;1028.7;;;14.3;51.3
61880;BME280;47817;52.798;27.544;2023-04-10T19:01:46;1028.8;;;14.2;51.8
61880;BME280;47817;52.798;27.544;2023-04-10T19:05:58;1028.8;;;14.1;52.5
61880;BME280;47817;52.798;27.544;2023-04-10T19:11:36;1028.8;;;13.9;53
61880;BME280;47817;52.798;27.544;2023-04-10T19:15:59;1028.7;;;13.9;53.1
61880;BME280;47817;52.798;27.544;2023-04-10T19:21:20;1028.7;;;13.8;53.3
61880;BME280;47817;52.798;27.544;2023-04-10T19:26:44;1028.7;;;13.7;53.5
61880;BME280;47817;52.798;27.544;2023-04-10T19:31:08;1028.6;;;13.6;53.8
61880;BME280;47817;52.798;27.544;2023-04-10T19:36:34;1028.6;;;13.5;55.1
61880;BME280;47817;52.798;27.544;2023-04-10T19:41:16;1028.6;;;13.4;56.3
61880;BME280;47817;52.798;27.544;2023-04-10T19:46:16;1028.6;;;13.3;56.5
61880;BME280;47817;52.798;27.544;2023-04-10T19:51:44;1028.6;;;13.2;56.3
61880;BME280;47817;52.798;27.544;2023-04-10T19:56:44;1028.6;;;13.2;56.2
61880;BME280;47817;52.798;27.544;2023-04-10T20:01:36;1028.6;;;13.1;56.5
61880;BME280;47817;52.798;27.544;2023-04-10T20:06:08;1028.7;;;13.1;56.6
61880;BME280;47817;52.798;27.544;2023-04-10T20:11:22;1028.7;;;13.1;56.9
61880;BME280;47817;52.798;27.544;2023-04-10T20:16:44;1028.6;;;13;57.2
61880;BME280;47817;52.798;27.544;2023-04-10T20:21:22;1028.6;;;12.9;58.2
61880;BME280;47817;52.798;27.544;2023-04-10T20:26:36;1028.6;;;12.8;58.9
61880;BME280;47817;52.798;27.544;2023-04-10T20:31:14;1028.6;;;12.7;59.3
61880;BME280;47817;52.798;27.544;2023-04-10T20:36:22;1028.6;;;12.6;58.9
61880;BME280;47817;52.798;27.544;2023-04-10T20:41:44;1028.6;;;12.6;59.1
61880;BME280;47817;52.798;27.544;2023-04-10T20:46:22;1028.7;;;12.6;59.1
61880;BME280;47817;52.798;27.544;2023-04-10T20:51:14;1028.7;;;12.6;59.1
61880;BME280;47817;52.798;27.544;2023-04-10T20:55:58;1028.7;;;12.6;59.3
61880;BME280;47817;52.798;27.544;2023-04-10T21:01:36;1028.6;;;12.5;59.6
61880;BME280;47817;52.798;27.544;2023-04-10T21:06:42;1028.6;;;12.4;60.4
61880;BME280;47817;52.798;27.544;2023-04-10T21:11:08;1028.6;;;12.2;61
61880;BME280;47817;52.798;27.544;2023-04-10T21:16:36;1028.5;;;12.2;61.3
61880;BME280;47817;52.798;27.544;2023-04-10T21:20:58;1028.5;;;12;61.5
61880;BME280;47817;52.798;27.544;2023-04-10T21:26:36;1028.5;;;11.9;61.6
61880;BME280;47817;52.798;27.544;2023-04-10T21:31:44;1028.5;;;11.9;61.6
61880;BME280;47817;52.798;27.544;2023-04-10T21:36:22;1028.5;;;11.8;61.8
61880;BME280;47817;52.798;27.544;2023-04-10T21:41:24;1028.5;;;11.8;61.1
61880;BME280;47817;52.798;27.544;2023-04-10T21:45:58;1028.5;;;11.7;61.8
61880;BME280;47817;52.798;27.544;2023-04-10T21:51:37;1028.5;;;11.6;62.4
61880;BME280;47817;52.798;27.544;2023-04-10T21:56:44;1028.5;;;11.5;63
61880;BME280;47817;52.798;27.544;2023-04-10T22:01:22;1028.5;;;11.5;63.3
61880;BME280;47817;52.798;27.544;2023-04-10T22:06:36;1028.5;;;11.4;63.7
61880;BME280;47817;52.798;27.544;2023-04-10T22:10:58;1028.4;;;11.4;64
61880;BME280;47817;52.798;27.544;2023-04-10T22:16:34;1028.4;;;11.3;64
61880;BME280;47817;52.798;27.544;2023-04-10T22:21:46;1028.3;;;11.2;64
61880;BME280;47817;52.798;27.544;2023-04-10T22:25:58;1028.3;;;11.2;64
61880;BME280;47817;52.798;27.544;2023-04-10T22:31:36;1028.3;;;11.1;64.1
61880;BME280;47817;52.798;27.544;2023-04-10T22:35:58;1028.2;;;11;64.2
61880;BME280;47817;52.798;27.544;2023-04-10T22:41:26;1028.2;;;11;64.3
61880;BME280;47817;52.798;27.544;2023-04-10T22:46:44;1028.2;;;11;64.8
61880;BME280;47817;52.798;27.544;2023-04-10T22:50:58;1028.2;;;11;65
61880;BME280;47817;52.798;27.544;2023-04-10T22:56:45;1028.2;;;11;65.1
61880;BME280;47817;52.798;27.544;2023-04-10T23:01:14;1028.2;;;11.1;65.5
61880;BME280;47817;52.798;27.544;2023-04-10T23:06:34;1028.2;;;11.1;66.8
61880;BME280;47817;52.798;27.544;2023-04-10T23:11:46;1028.2;;;11;67.6
61880;BME280;47817;52.798;27.544;2023-04-10T23:15:58;1028.2;;;10.9;68.1
61880;BME280;47817;52.798;27.544;2023-04-10T23:21:36;1028.1;;;10.9;68.3
61880;BME280;47817;52.798;27.544;2023-04-10T23:26:08;1028.1;;;10.8;68.2
61880;BME280;47817;52.798;27.544;2023-04-10T23:31:44;1028.1;;;10.8;68
61880;BME280;47817;52.798;27.544;2023-04-10T23:36:42;1028;;;10.8;67.9
61880;BME280;47817;52.798;27.544;2023-04-10T23:40:58;1028;;;10.8;68
61880;BME280;47817;52.798;27.544;2023-04-10T23:46:22;1028;;;10.6;68.5
61880;BME280;47817;52.798;27.544;2023-04-10T23:51:28;1027.9;;;10.5;69.2
61880;BME280;47817;52.798;27.544;2023-04-10T23:56:36;1027.9;;;10.4;69.5
